createdAt,value
2022-12-29T00:00:05.535Z,15.74
2022-12-29T00:02:32.058Z,15.74
2022-12-29T00:04:58.470Z,15.73
2022-12-29T00:07:24.883Z,15.72
2022-12-29T00:09:51.303Z,15.72
2022-12-29T00:12:17.755Z,15.73
2022-12-29T00:15:03.019Z,15.73
2022-12-29T00:17:29.381Z,15.71
2022-12-29T00:20:14.566Z,15.71
2022-12-29T00:22:59.286Z,15.69
2022-12-29T00:25:44.194Z,15.70
2022-12-29T00:28:28.897Z,15.70
2022-12-29T00:31:18.713Z,15.69
2022-12-29T00:34:03.899Z,15.66
2022-12-29T00:36:35.924Z,15.67
2022-12-29T00:39:29.010Z,15.70
2022-12-29T00:42:13.716Z,15.67
2022-12-29T00:44:40.142Z,15.67
2022-12-29T00:47:06.597Z,15.69
2022-12-29T00:49:34.092Z,15.69
2022-12-29T00:52:08.623Z,15.70
2022-12-29T00:54:38.654Z,15.69
2022-12-29T00:57:07.290Z,15.68
2022-12-29T00:59:36.316Z,15.69
2022-12-29T01:02:02.895Z,15.69
2022-12-29T01:04:29.609Z,15.71
2022-12-29T01:06:55.996Z,15.70
2022-12-29T01:09:41.204Z,15.70
2022-12-29T01:12:09.040Z,15.69
2022-12-29T01:14:35.806Z,15.66
2022-12-29T01:17:02.279Z,15.69
2022-12-29T01:19:28.734Z,15.68
2022-12-29T01:21:57.136Z,15.70
2022-12-29T01:24:23.722Z,15.70
2022-12-29T01:26:50.264Z,15.68
2022-12-29T01:29:16.804Z,15.66
2022-12-29T01:31:43.860Z,15.71
2022-12-29T01:34:10.343Z,15.70
2022-12-29T01:36:36.962Z,15.63
2022-12-29T01:39:03.582Z,15.68
2022-12-29T01:41:30.129Z,15.71
2022-12-29T01:44:00.168Z,15.71
2022-12-29T01:46:42.207Z,15.71
2022-12-29T01:49:08.541Z,15.70
2022-12-29T01:51:43.771Z,15.72
2022-12-29T01:54:15.818Z,15.71
2022-12-29T01:56:42.713Z,15.69
2022-12-29T01:59:13.452Z,15.67
2022-12-29T02:01:41.085Z,15.70
2022-12-29T02:04:11.448Z,15.71
2022-12-29T02:06:58.996Z,15.72
2022-12-29T02:09:25.571Z,15.71
2022-12-29T02:11:53.248Z,15.67
2022-12-29T02:14:19.683Z,15.72
2022-12-29T02:16:52.764Z,15.73
2022-12-29T02:20:00.984Z,15.71
2022-12-29T02:23:11.897Z,15.68
2022-12-29T02:25:53.504Z,15.67
2022-12-29T02:28:29.622Z,15.67
2022-12-29T02:31:22.036Z,15.68
2022-12-29T02:34:13.684Z,15.70
2022-12-29T02:37:10.514Z,15.68
2022-12-29T02:40:08.279Z,15.65
2022-12-29T02:42:44.954Z,15.64
2022-12-29T02:45:21.540Z,15.65
2022-12-29T02:47:57.476Z,15.67
2022-12-29T02:50:28.235Z,15.63
2022-12-29T02:53:03.272Z,15.65
2022-12-29T02:55:29.714Z,15.64
2022-12-29T02:58:25.780Z,15.65
2022-12-29T03:01:17.208Z,15.64
2022-12-29T03:04:12.393Z,15.64
2022-12-29T03:07:03.255Z,15.64
2022-12-29T03:09:50.581Z,15.63
2022-12-29T03:13:00.258Z,15.60
2022-12-29T03:15:59.354Z,15.62
2022-12-29T03:18:50.901Z,15.58
2022-12-29T03:21:54.763Z,15.60
2022-12-29T03:24:26.086Z,15.61
2022-12-29T03:26:55.691Z,15.62
2022-12-29T03:29:22.425Z,15.63
2022-12-29T03:31:52.477Z,15.61
2022-12-29T03:34:20.966Z,15.64
2022-12-29T03:36:58.847Z,15.61
2022-12-29T03:39:26.243Z,15.64
2022-12-29T03:42:02.738Z,15.64
2022-12-29T03:44:40.271Z,15.48
2022-12-29T03:47:07.072Z,15.41
2022-12-29T03:49:34.146Z,15.50
2022-12-29T03:52:00.903Z,15.58
2022-12-29T03:54:27.476Z,15.59
2022-12-29T03:56:53.908Z,15.60
2022-12-29T03:59:20.441Z,15.60
2022-12-29T04:01:47.409Z,15.60
2022-12-29T04:04:14.137Z,15.62
2022-12-29T04:06:40.880Z,15.59
2022-12-29T04:09:07.656Z,15.61
2022-12-29T04:11:34.655Z,15.61
2022-12-29T04:14:01.113Z,15.61
2022-12-29T04:16:27.544Z,15.60
2022-12-29T04:18:54.044Z,15.61
2022-12-29T04:21:20.517Z,15.59
2022-12-29T04:23:47.087Z,15.61
2022-12-29T04:26:13.911Z,15.59
2022-12-29T04:28:41.063Z,15.60
2022-12-29T04:31:07.847Z,15.57
2022-12-29T04:33:34.374Z,15.60
2022-12-29T04:36:00.898Z,15.59
2022-12-29T04:38:27.394Z,15.60
2022-12-29T04:40:54.053Z,15.55
2022-12-29T04:43:20.559Z,15.59
2022-12-29T04:45:47.748Z,15.56
2022-12-29T04:48:14.858Z,15.59
2022-12-29T04:50:41.999Z,15.59
2022-12-29T04:53:08.976Z,15.59
2022-12-29T04:55:35.408Z,15.56
2022-12-29T04:58:01.840Z,15.53
2022-12-29T05:00:28.415Z,15.50
2022-12-29T05:02:55.102Z,15.57
2022-12-29T05:05:21.740Z,15.55
2022-12-29T05:07:48.220Z,15.52
2022-12-29T05:10:14.646Z,15.57
2022-12-29T05:12:41.071Z,15.43
2022-12-29T05:15:08.636Z,15.53
2022-12-29T05:17:35.106Z,15.46
2022-12-29T05:20:01.522Z,15.45
2022-12-29T05:22:27.963Z,15.45
2022-12-29T05:24:54.424Z,15.46
2022-12-29T05:27:20.993Z,15.51
2022-12-29T05:29:47.460Z,15.46
2022-12-29T05:32:13.940Z,15.44
2022-12-29T05:34:41.217Z,15.47
2022-12-29T05:37:07.693Z,15.46
2022-12-29T05:39:34.158Z,15.43
2022-12-29T05:42:00.665Z,15.44
2022-12-29T05:44:27.067Z,15.42
2022-12-29T05:46:53.597Z,15.40
2022-12-29T05:49:20.424Z,15.43
2022-12-29T05:51:46.771Z,15.42
2022-12-29T05:54:13.215Z,15.36
2022-12-29T05:56:39.609Z,15.38
2022-12-29T05:59:06.001Z,15.39
2022-12-29T06:01:32.495Z,15.40
2022-12-29T06:03:59.540Z,15.37
2022-12-29T06:06:27.143Z,15.38
2022-12-29T06:08:53.646Z,15.39
2022-12-29T06:11:20.465Z,15.32
2022-12-29T06:13:46.882Z,15.27
2022-12-29T06:16:13.907Z,15.33
2022-12-29T06:18:40.449Z,15.36
2022-12-29T06:21:06.882Z,15.35
2022-12-29T06:23:33.711Z,15.33
2022-12-29T06:26:00.371Z,15.33
2022-12-29T06:28:26.884Z,15.30
2022-12-29T06:30:53.301Z,15.34
2022-12-29T06:33:19.791Z,15.20
2022-12-29T06:35:47.003Z,15.33
2022-12-29T06:38:13.638Z,15.33
2022-12-29T06:40:40.576Z,15.32
2022-12-29T06:43:07.030Z,15.30
2022-12-29T06:45:33.699Z,15.31
2022-12-29T06:48:00.390Z,15.29
2022-12-29T06:50:27.119Z,15.30
2022-12-29T06:52:53.523Z,15.30
2022-12-29T06:55:20.001Z,15.28
2022-12-29T06:57:46.374Z,15.28
2022-12-29T07:00:15.895Z,15.29
2022-12-29T07:02:45.994Z,15.29
2022-12-29T07:05:12.591Z,15.25
2022-12-29T07:07:38.976Z,15.26
2022-12-29T07:10:05.676Z,15.27
2022-12-29T07:12:32.079Z,15.25
2022-12-29T07:14:58.538Z,15.26
2022-12-29T07:17:24.956Z,15.27
2022-12-29T07:19:51.447Z,15.26
2022-12-29T07:22:17.815Z,15.27
2022-12-29T07:24:44.286Z,15.22
2022-12-29T07:27:10.767Z,15.26
2022-12-29T07:29:40.053Z,15.24
2022-12-29T07:32:06.717Z,15.25
2022-12-29T07:34:33.252Z,15.25
2022-12-29T07:36:59.677Z,15.30
2022-12-29T07:39:26.429Z,15.30
2022-12-29T07:41:52.937Z,15.32
2022-12-29T07:44:19.270Z,15.32
2022-12-29T07:46:55.030Z,15.34
2022-12-29T07:49:23.249Z,15.35
2022-12-29T07:51:49.654Z,15.36
2022-12-29T07:54:19.050Z,15.38
2022-12-29T07:56:46.026Z,15.37
2022-12-29T07:59:13.120Z,15.40
2022-12-29T08:01:39.845Z,15.42
2022-12-29T08:04:06.602Z,15.45
2022-12-29T08:06:33.228Z,15.45
2022-12-29T08:09:07.853Z,15.43
2022-12-29T08:11:39.412Z,15.44
2022-12-29T08:14:05.901Z,15.49
2022-12-29T08:16:33.438Z,15.51
2022-12-29T08:19:00.292Z,15.52
2022-12-29T08:21:28.821Z,15.56
2022-12-29T08:23:55.347Z,15.58
2022-12-29T08:26:21.936Z,15.54
2022-12-29T08:28:48.444Z,15.60
2022-12-29T08:31:15.115Z,15.60
2022-12-29T08:33:43.198Z,15.64
2022-12-29T08:36:10.201Z,15.63
2022-12-29T08:38:36.612Z,15.71
2022-12-29T08:41:03.289Z,15.73
2022-12-29T08:43:30.858Z,15.76
2022-12-29T08:45:59.293Z,15.77
2022-12-29T08:48:26.369Z,15.76
2022-12-29T08:50:53.561Z,15.80
2022-12-29T08:53:20.467Z,15.83
2022-12-29T08:55:47.831Z,15.82
2022-12-29T08:58:15.643Z,15.83
2022-12-29T09:00:42.986Z,15.87
2022-12-29T09:03:09.685Z,15.90
2022-12-29T09:05:36.392Z,15.91
2022-12-29T09:08:02.776Z,15.94
2022-12-29T09:10:29.287Z,15.95
2022-12-29T09:12:55.782Z,15.99
2022-12-29T09:15:22.283Z,16.02
2022-12-29T09:17:48.685Z,16.03
2022-12-29T09:20:17.916Z,16.04
2022-12-29T09:22:45.326Z,16.09
2022-12-29T09:25:12.544Z,16.15
2022-12-29T09:27:39.441Z,16.19
2022-12-29T09:30:08.340Z,16.20
2022-12-29T09:32:39.112Z,16.24
2022-12-29T09:35:08.655Z,16.27
2022-12-29T09:37:35.069Z,16.31
2022-12-29T09:40:01.576Z,16.29
2022-12-29T09:42:40.238Z,16.34
2022-12-29T09:45:42.360Z,16.35
2022-12-29T09:48:19.563Z,16.30
2022-12-29T09:50:53.069Z,16.36
2022-12-29T09:53:28.804Z,16.37
2022-12-29T09:55:58.357Z,16.39
2022-12-29T09:58:33.992Z,16.39
2022-12-29T10:01:08.707Z,16.41
2022-12-29T10:03:57.582Z,16.42
2022-12-29T10:06:56.177Z,16.42
2022-12-29T10:09:54.471Z,16.48
2022-12-29T10:12:58.668Z,16.53
2022-12-29T10:16:00.744Z,16.57
2022-12-29T10:18:27.181Z,16.59
2022-12-29T10:21:05.863Z,16.63
2022-12-29T10:23:46.011Z,16.65
2022-12-29T10:26:19.635Z,16.67
2022-12-29T10:28:53.312Z,16.66
2022-12-29T10:31:25.230Z,16.67
2022-12-29T10:34:04.283Z,16.67
2022-12-29T10:36:39.616Z,16.71
2022-12-29T10:39:19.863Z,16.71
2022-12-29T10:41:59.501Z,16.70
2022-12-29T10:44:30.548Z,16.69
2022-12-29T10:47:02.106Z,16.74
2022-12-29T10:49:31.485Z,16.76
2022-12-29T10:52:01.297Z,16.81
2022-12-29T10:54:34.525Z,16.86
2022-12-29T10:57:06.218Z,16.89
2022-12-29T10:59:36.547Z,16.90
2022-12-29T11:02:05.743Z,16.98
2022-12-29T11:04:51.108Z,17.00
2022-12-29T11:07:25.081Z,17.00
2022-12-29T11:09:53.679Z,17.03
2022-12-29T11:12:21.883Z,17.06
2022-12-29T11:14:48.597Z,17.07
2022-12-29T11:17:18.131Z,17.05
2022-12-29T11:19:44.840Z,17.10
2022-12-29T11:22:23.816Z,17.17
2022-12-29T11:24:52.422Z,17.18
2022-12-29T11:27:23.870Z,17.22
2022-12-29T11:29:52.307Z,17.23
2022-12-29T11:32:28.758Z,17.25
2022-12-29T11:34:58.505Z,17.25
2022-12-29T11:37:31.513Z,17.27
2022-12-29T11:40:09.098Z,17.28
2022-12-29T11:42:57.735Z,17.31
2022-12-29T11:45:26.503Z,17.31
2022-12-29T11:47:57.316Z,17.24
2022-12-29T11:50:27.245Z,17.32
2022-12-29T11:53:01.420Z,17.36
2022-12-29T11:55:29.645Z,17.35
2022-12-29T11:57:59.304Z,17.33
2022-12-29T12:00:28.662Z,17.37
2022-12-29T12:03:05.076Z,17.35
2022-12-29T12:05:45.720Z,17.34
2022-12-29T12:08:22.304Z,17.34
2022-12-29T12:10:59.935Z,17.34
2022-12-29T12:13:50.969Z,17.34
2022-12-29T12:16:22.256Z,17.31
2022-12-29T12:18:52.952Z,17.34
2022-12-29T12:21:33.076Z,17.35
2022-12-29T12:24:06.499Z,17.38
2022-12-29T12:26:42.721Z,17.42
2022-12-29T12:29:27.276Z,17.39
2022-12-29T12:32:02.483Z,17.35
2022-12-29T12:34:38.198Z,17.47
2022-12-29T12:37:27.615Z,17.42
2022-12-29T12:40:03.277Z,17.48
2022-12-29T12:42:41.814Z,17.49
2022-12-29T12:45:41.811Z,17.53
2022-12-29T12:48:44.926Z,17.52
2022-12-29T12:51:49.173Z,17.57
2022-12-29T12:54:24.687Z,17.58
2022-12-29T12:57:10.015Z,17.58
2022-12-29T12:59:39.547Z,17.61
2022-12-29T13:02:37.098Z,17.62
2022-12-29T13:05:15.525Z,17.64
2022-12-29T13:08:20.507Z,17.63
2022-12-29T13:10:57.486Z,17.65
2022-12-29T13:13:42.125Z,17.67
2022-12-29T13:16:38.380Z,17.64
2022-12-29T13:19:13.544Z,17.64
2022-12-29T13:21:57.441Z,17.67
2022-12-29T13:24:54.199Z,17.62
2022-12-29T13:27:42.427Z,17.67
2022-12-29T13:30:18.851Z,17.68
2022-12-29T13:33:04.035Z,17.65
2022-12-29T13:35:52.176Z,17.67
2022-12-29T13:38:31.897Z,17.65
2022-12-29T13:41:04.211Z,17.68
2022-12-29T13:43:34.961Z,17.67
2022-12-29T13:46:14.042Z,17.63
2022-12-29T13:48:55.745Z,17.62
2022-12-29T13:51:28.078Z,17.65
2022-12-29T13:54:13.831Z,17.64
2022-12-29T13:57:01.807Z,17.65
2022-12-29T13:59:44.841Z,17.64
2022-12-29T14:02:59.613Z,17.63
2022-12-29T14:05:26.073Z,17.62
2022-12-29T14:08:01.821Z,17.62
2022-12-29T14:10:37.307Z,17.60
2022-12-29T14:13:05.675Z,17.57
2022-12-29T14:15:32.377Z,17.59
2022-12-29T14:18:13.294Z,17.55
2022-12-29T14:20:50.650Z,17.56
2022-12-29T14:23:26.711Z,17.57
2022-12-29T14:26:00.507Z,17.53
2022-12-29T14:28:29.648Z,17.49
2022-12-29T14:31:01.709Z,17.51
2022-12-29T14:33:33.970Z,17.47
2022-12-29T14:36:58.517Z,17.38
2022-12-29T14:39:42.613Z,17.38
2022-12-29T14:42:19.893Z,17.37
2022-12-29T14:44:52.958Z,17.35
2022-12-29T14:47:28.199Z,17.34
2022-12-29T14:49:55.626Z,17.28
2022-12-29T14:52:24.114Z,17.30
2022-12-29T14:55:10.687Z,17.28
2022-12-29T14:57:41.777Z,17.25
2022-12-29T15:00:20.937Z,17.23
2022-12-29T15:02:55.568Z,17.20
2022-12-29T15:05:46.036Z,17.17
2022-12-29T15:08:14.204Z,17.16
2022-12-29T15:10:53.986Z,17.15
2022-12-29T15:13:33.111Z,17.11
2022-12-29T15:15:59.617Z,17.06
2022-12-29T15:18:29.950Z,17.06
2022-12-29T15:21:07.414Z,17.02
2022-12-29T15:23:35.826Z,16.97
2022-12-29T15:26:04.768Z,16.96
2022-12-29T15:28:44.048Z,16.90
2022-12-29T15:31:17.959Z,16.90
2022-12-29T15:33:48.413Z,16.88
2022-12-29T15:36:23.303Z,16.83
2022-12-29T15:38:50.306Z,16.77
2022-12-29T15:41:28.071Z,16.78
2022-12-29T15:44:09.027Z,16.74
2022-12-29T15:46:36.024Z,16.69
2022-12-29T15:49:07.338Z,16.69
2022-12-29T15:51:38.108Z,16.67
2022-12-29T15:54:05.149Z,16.63
2022-12-29T15:56:33.251Z,16.61
2022-12-29T15:59:00.596Z,16.57
2022-12-29T16:01:34.599Z,16.56
2022-12-29T16:04:05.491Z,16.51
2022-12-29T16:06:37.507Z,16.53
2022-12-29T16:09:16.189Z,16.48
2022-12-29T16:11:51.681Z,16.46
2022-12-29T16:14:22.113Z,16.43
2022-12-29T16:16:50.300Z,16.41
2022-12-29T16:19:24.912Z,16.41
2022-12-29T16:21:51.835Z,16.35
2022-12-29T16:24:22.831Z,16.38
2022-12-29T16:26:59.170Z,16.32
2022-12-29T16:29:25.605Z,16.31
2022-12-29T16:32:06.529Z,16.29
2022-12-29T16:34:42.873Z,16.28
2022-12-29T16:37:30.122Z,16.23
2022-12-29T16:39:57.012Z,16.19
2022-12-29T16:42:50.993Z,16.19
2022-12-29T16:45:21.825Z,16.17
2022-12-29T16:48:01.037Z,16.13
2022-12-29T16:50:28.985Z,16.12
2022-12-29T16:52:55.528Z,16.10
2022-12-29T16:55:21.977Z,16.07
2022-12-29T16:57:50.711Z,16.08
2022-12-29T17:00:29.904Z,16.05
2022-12-29T17:02:59.908Z,16.01
2022-12-29T17:05:26.780Z,16.01
2022-12-29T17:07:53.811Z,15.98
2022-12-29T17:10:20.517Z,15.97
2022-12-29T17:12:49.594Z,15.95
2022-12-29T17:15:19.602Z,15.92
2022-12-29T17:17:48.625Z,15.88
2022-12-29T17:20:33.007Z,15.84
2022-12-29T17:23:00.222Z,15.79
2022-12-29T17:25:36.397Z,15.77
2022-12-29T17:28:23.393Z,15.64
2022-12-29T17:30:50.412Z,15.56
2022-12-29T17:33:18.177Z,15.46
2022-12-29T17:35:48.300Z,15.58
2022-12-29T17:38:36.296Z,15.59
2022-12-29T17:41:02.904Z,15.61
2022-12-29T17:43:36.468Z,15.61
2022-12-29T17:46:06.241Z,15.60
2022-12-29T17:48:32.790Z,15.57
2022-12-29T17:50:59.559Z,15.53
2022-12-29T17:53:29.186Z,15.55
2022-12-29T17:55:55.710Z,15.52
2022-12-29T17:58:24.824Z,15.50
2022-12-29T18:00:59.805Z,15.48
2022-12-29T18:03:33.460Z,15.42
2022-12-29T18:06:00.681Z,15.44
2022-12-29T18:08:29.337Z,15.40
2022-12-29T18:10:56.548Z,15.39
2022-12-29T18:13:30.289Z,15.37
2022-12-29T18:16:02.409Z,15.32
2022-12-29T18:18:28.853Z,15.28
2022-12-29T18:20:58.959Z,15.32
2022-12-29T18:23:28.877Z,15.27
2022-12-29T18:25:59.877Z,15.29
2022-12-29T18:28:27.274Z,15.20
2022-12-29T18:30:55.733Z,15.25
2022-12-29T18:33:26.236Z,15.20
2022-12-29T18:35:57.675Z,15.21
2022-12-29T18:38:24.239Z,15.19
2022-12-29T18:40:51.891Z,15.18
2022-12-29T18:43:19.290Z,15.14
2022-12-29T18:45:46.463Z,15.16
2022-12-29T18:48:13.878Z,15.14
2022-12-29T18:50:40.679Z,15.09
2022-12-29T18:53:07.362Z,15.12
2022-12-29T18:55:33.882Z,15.12
2022-12-29T18:58:00.262Z,15.12
2022-12-29T19:00:26.627Z,15.11
2022-12-29T19:02:53.149Z,15.10
2022-12-29T19:05:28.454Z,15.11
2022-12-29T19:07:55.055Z,15.09
2022-12-29T19:10:25.461Z,15.09
2022-12-29T19:12:52.715Z,15.08
2022-12-29T19:15:35.849Z,15.06
2022-12-29T19:20:53.166Z,15.03
2022-12-29T19:23:25.414Z,15.02
2022-12-29T19:25:53.408Z,15.02
2022-12-29T19:28:25.844Z,15.03
2022-12-29T19:30:55.245Z,15.01
2022-12-29T19:33:24.092Z,15.00
2022-12-29T19:35:51.547Z,15.00
2022-12-29T19:38:18.900Z,14.97
2022-12-29T19:40:48.136Z,14.99
2022-12-29T19:43:15.451Z,14.93
2022-12-29T19:45:43.565Z,14.97
2022-12-29T19:48:15.940Z,14.97
2022-12-29T19:50:43.622Z,14.95
2022-12-29T19:53:10.482Z,14.94
2022-12-29T19:55:37.057Z,14.92
2022-12-29T19:58:03.907Z,14.94
2022-12-29T20:00:30.411Z,14.92
2022-12-29T20:02:57.017Z,14.92
2022-12-29T20:05:23.683Z,14.89
2022-12-29T20:07:50.120Z,14.88
2022-12-29T20:10:16.559Z,14.90
2022-12-29T20:12:43.104Z,14.87
2022-12-29T20:15:11.513Z,14.90
2022-12-29T20:18:11.748Z,14.87
2022-12-29T20:20:24.415Z,14.86
2022-12-29T20:22:50.964Z,14.83
2022-12-29T20:28:03.848Z,14.76
2022-12-29T20:30:30.219Z,14.85
2022-12-29T20:32:56.579Z,14.77
2022-12-29T20:35:23.131Z,14.85
2022-12-29T20:37:49.731Z,14.83
2022-12-29T20:40:16.257Z,14.80
2022-12-29T20:42:42.707Z,14.81
2022-12-29T20:45:09.928Z,14.81
2022-12-29T20:47:36.583Z,14.80
2022-12-29T20:50:03.080Z,14.80
2022-12-29T20:52:29.433Z,14.79
2022-12-29T20:54:55.840Z,14.80
2022-12-29T20:57:22.273Z,14.79
2022-12-29T20:59:50.219Z,14.72
2022-12-29T21:02:22.312Z,14.68
2022-12-29T21:07:35.559Z,14.76
2022-12-29T21:10:02.041Z,14.79
2022-12-29T21:12:28.545Z,14.77
2022-12-29T21:14:55.152Z,14.79
2022-12-29T21:17:21.831Z,14.79
2022-12-29T21:19:48.645Z,14.78
2022-12-29T21:22:15.023Z,14.76
2022-12-29T21:24:41.450Z,14.74
2022-12-29T21:27:07.896Z,14.77
2022-12-29T21:29:34.326Z,14.76
2022-12-29T21:32:06.288Z,14.75
2022-12-29T21:34:34.661Z,14.73
2022-12-29T21:37:01.356Z,14.77
2022-12-29T21:39:28.025Z,14.77
2022-12-29T21:42:00.004Z,14.74
2022-12-29T21:44:46.133Z,14.74
2022-12-29T21:47:13.020Z,14.74
2022-12-29T21:49:39.493Z,14.73
2022-12-29T21:52:05.937Z,14.73
2022-12-29T21:54:50.724Z,14.70
2022-12-29T21:57:37.061Z,14.72
2022-12-29T22:00:29.399Z,14.70
2022-12-29T22:03:22.162Z,14.69
2022-12-29T22:06:08.918Z,14.67
2022-12-29T22:08:53.691Z,14.69
2022-12-29T22:11:38.463Z,14.67
2022-12-29T22:14:06.355Z,14.64
2022-12-29T22:16:32.936Z,14.68
2022-12-29T22:18:59.493Z,14.67
2022-12-29T22:21:25.937Z,14.67
2022-12-29T22:23:52.428Z,14.54
2022-12-29T22:26:18.901Z,14.66
2022-12-29T22:28:46.268Z,14.64
2022-12-29T22:31:28.821Z,14.62
2022-12-29T22:34:00.972Z,14.61
2022-12-29T22:36:28.022Z,14.62
2022-12-29T22:38:54.514Z,14.64
2022-12-29T22:41:21.426Z,14.60
2022-12-29T22:43:47.898Z,14.62
2022-12-29T22:46:14.345Z,14.58
2022-12-29T22:48:40.999Z,14.60
2022-12-29T22:51:07.722Z,14.62
2022-12-29T22:53:34.188Z,14.52
2022-12-29T22:56:02.267Z,14.62
2022-12-29T22:58:28.680Z,14.59
2022-12-29T23:00:55.101Z,14.57
2022-12-29T23:03:24.436Z,14.52
2022-12-29T23:05:58.814Z,14.57
2022-12-29T23:08:25.729Z,14.54
2022-12-29T23:10:52.515Z,14.52
2022-12-29T23:13:19.117Z,14.54
2022-12-29T23:15:46.823Z,14.52
2022-12-29T23:18:13.325Z,14.49
2022-12-29T23:20:40.405Z,14.51
2022-12-29T23:23:06.789Z,14.52
2022-12-29T23:25:35.945Z,14.49
2022-12-29T23:28:02.938Z,14.50
2022-12-29T23:30:29.315Z,14.49
2022-12-29T23:32:55.799Z,14.46
2022-12-29T23:35:22.192Z,14.45
2022-12-29T23:37:48.751Z,14.48
2022-12-29T23:40:15.284Z,14.44
2022-12-29T23:42:41.711Z,14.44
2022-12-29T23:45:08.735Z,14.44
2022-12-29T23:47:35.097Z,14.41
2022-12-29T23:50:01.556Z,14.43
2022-12-29T23:52:27.972Z,14.42
2022-12-29T23:54:54.391Z,14.38
2022-12-29T23:57:20.939Z,14.41
2022-12-29T23:59:47.323Z,14.41
